createdAt,value
2023-06-07T00:00:30.989Z,2.15
2023-06-07T00:01:30.986Z,2.12
2023-06-07T00:02:42.938Z,2.14
2023-06-07T00:03:32.504Z,2.14
2023-06-07T00:04:31.159Z,2.15
2023-06-07T00:05:31.098Z,2.14
2023-06-07T00:06:31.111Z,2.07
2023-06-07T00:07:31.087Z,2.11
2023-06-07T00:08:31.092Z,2.12
2023-06-07T00:09:31.104Z,2.06
2023-06-07T00:10:31.121Z,2.13
2023-06-07T00:11:31.136Z,2.07
2023-06-07T00:12:31.227Z,2.03
2023-06-07T00:13:31.159Z,2.02
2023-06-07T00:14:31.234Z,2.09
2023-06-07T00:15:31.294Z,2.07
2023-06-07T00:16:31.338Z,2.06
2023-06-07T00:17:31.452Z,2.08
2023-06-07T00:18:31.420Z,2.02
2023-06-07T00:19:31.391Z,2.05
2023-06-07T00:20:31.433Z,1.90
2023-06-07T00:21:31.528Z,2.00
2023-06-07T00:22:31.521Z,2.03
2023-06-07T00:23:31.607Z,2.04
2023-06-07T00:24:31.633Z,2.03
2023-06-07T00:25:31.630Z,2.06
2023-06-07T00:26:31.617Z,2.07
2023-06-07T00:27:31.668Z,2.02
2023-06-07T00:28:31.691Z,2.06
2023-06-07T00:29:31.735Z,2.11
2023-06-07T00:30:31.725Z,2.08
2023-06-07T00:31:31.810Z,2.02
2023-06-07T00:32:31.796Z,1.94
2023-06-07T00:33:31.834Z,1.89
2023-06-07T00:34:31.837Z,1.87
2023-06-07T00:35:31.875Z,1.91
2023-06-07T00:36:31.868Z,1.93
2023-06-07T00:37:31.928Z,1.90
2023-06-07T00:38:31.922Z,1.94
2023-06-07T00:39:31.919Z,2.00
2023-06-07T00:40:31.947Z,2.00
2023-06-07T00:41:31.961Z,1.97
2023-06-07T00:42:31.965Z,2.04
2023-06-07T00:43:32.050Z,2.06
2023-06-07T00:44:31.994Z,2.11
2023-06-07T00:45:32.032Z,2.06
2023-06-07T00:46:32.039Z,2.11
2023-06-07T00:47:32.186Z,2.10
2023-06-07T00:48:32.151Z,2.01
2023-06-07T00:49:32.130Z,1.97
2023-06-07T00:50:32.194Z,1.94
2023-06-07T00:51:32.195Z,1.93
2023-06-07T00:52:32.242Z,1.89
2023-06-07T00:53:32.266Z,1.90
2023-06-07T00:54:32.332Z,1.85
2023-06-07T00:55:32.319Z,1.86
2023-06-07T00:56:32.327Z,1.82
2023-06-07T00:57:32.349Z,1.86
2023-06-07T00:58:32.420Z,1.90
2023-06-07T00:59:32.384Z,1.90
2023-06-07T01:00:32.480Z,1.92
2023-06-07T01:01:32.495Z,1.99
2023-06-07T01:02:32.429Z,1.93
2023-06-07T01:03:32.631Z,1.90
2023-06-07T01:04:32.420Z,2.00
2023-06-07T01:05:32.453Z,1.99
2023-06-07T01:06:32.419Z,1.99
2023-06-07T01:07:32.460Z,1.95
2023-06-07T01:08:32.462Z,1.89
2023-06-07T01:09:32.459Z,1.89
2023-06-07T01:10:32.534Z,1.91
2023-06-07T01:11:32.554Z,1.97
2023-06-07T01:12:32.605Z,1.89
2023-06-07T01:13:32.625Z,1.94
2023-06-07T01:14:32.640Z,1.98
2023-06-07T01:15:32.673Z,2.05
2023-06-07T01:16:32.708Z,1.98
2023-06-07T01:17:32.726Z,1.85
2023-06-07T01:18:32.697Z,1.88
2023-06-07T01:19:32.732Z,1.83
2023-06-07T01:20:32.733Z,1.83
2023-06-07T01:21:32.786Z,1.75
2023-06-07T01:22:32.725Z,1.75
2023-06-07T01:23:32.853Z,1.75
2023-06-07T01:24:32.752Z,1.76
2023-06-07T01:25:32.749Z,1.68
2023-06-07T01:26:32.775Z,1.56
2023-06-07T01:27:32.759Z,1.59
2023-06-07T01:28:32.752Z,1.60
2023-06-07T01:29:32.785Z,1.59
2023-06-07T01:30:32.842Z,1.63
2023-06-07T01:31:32.815Z,1.64
2023-06-07T01:32:32.854Z,1.60
2023-06-07T01:33:32.818Z,1.64
2023-06-07T01:34:32.830Z,1.64
2023-06-07T01:35:32.839Z,1.66
2023-06-07T01:36:32.861Z,1.68
2023-06-07T01:37:32.862Z,1.61
2023-06-07T01:38:32.850Z,1.52
2023-06-07T01:39:32.864Z,1.66
2023-06-07T01:40:32.858Z,1.76
2023-06-07T01:41:32.897Z,1.74
2023-06-07T01:42:32.890Z,1.64
2023-06-07T01:43:32.881Z,1.79
2023-06-07T01:44:32.899Z,1.69
2023-06-07T01:45:32.918Z,1.71
2023-06-07T01:46:33.010Z,1.77
2023-06-07T01:47:32.946Z,1.83
2023-06-07T01:48:32.964Z,1.60
2023-06-07T01:49:32.930Z,1.59
2023-06-07T01:50:32.915Z,1.61
2023-06-07T01:51:32.944Z,1.62
2023-06-07T01:52:32.936Z,1.62
2023-06-07T01:53:32.920Z,1.52
2023-06-07T01:54:32.940Z,1.54
2023-06-07T01:55:32.972Z,1.60
2023-06-07T01:56:32.952Z,1.56
2023-06-07T01:57:32.989Z,1.46
2023-06-07T01:58:32.980Z,1.52
2023-06-07T01:59:33.014Z,1.53
2023-06-07T02:00:33.006Z,1.52
2023-06-07T02:01:33.127Z,1.49
2023-06-07T02:02:33.052Z,1.45
2023-06-07T02:03:33.023Z,1.26
2023-06-07T02:04:33.026Z,1.34
2023-06-07T02:05:33.056Z,1.16
2023-06-07T02:06:33.079Z,1.32
2023-06-07T02:07:33.065Z,1.51
2023-06-07T02:08:33.116Z,1.60
2023-06-07T02:09:33.089Z,1.62
2023-06-07T02:10:33.126Z,1.67
2023-06-07T02:11:33.174Z,1.57
2023-06-07T02:12:33.117Z,1.24
2023-06-07T02:13:33.122Z,1.31
2023-06-07T02:14:33.145Z,1.46
2023-06-07T02:15:33.138Z,1.46
2023-06-07T02:16:33.176Z,1.33
2023-06-07T02:17:33.435Z,1.34
2023-06-07T02:18:33.159Z,1.20
2023-06-07T02:19:33.200Z,1.32
2023-06-07T02:20:33.198Z,1.30
2023-06-07T02:21:33.219Z,1.24
2023-06-07T02:22:33.240Z,1.24
2023-06-07T02:23:33.284Z,1.03
2023-06-07T02:24:33.251Z,1.00
2023-06-07T02:25:33.272Z,1.08
2023-06-07T02:26:33.279Z,1.19
2023-06-07T02:27:33.274Z,1.16
2023-06-07T02:28:33.379Z,1.24
2023-06-07T02:29:33.339Z,1.30
2023-06-07T02:30:33.324Z,1.25
2023-06-07T02:31:33.387Z,1.14
2023-06-07T02:32:33.371Z,1.07
2023-06-07T02:33:33.360Z,1.02
2023-06-07T02:34:33.397Z,1.01
2023-06-07T02:35:33.404Z,1.08
2023-06-07T02:36:33.410Z,1.06
2023-06-07T02:37:33.429Z,1.11
2023-06-07T02:38:33.425Z,1.08
2023-06-07T02:39:33.463Z,0.95
2023-06-07T02:40:33.464Z,0.83
2023-06-07T02:41:33.495Z,0.83
2023-06-07T02:42:33.492Z,0.87
2023-06-07T02:43:33.512Z,0.91
2023-06-07T02:44:33.505Z,1.01
2023-06-07T02:45:33.548Z,1.09
2023-06-07T02:46:33.534Z,0.92
2023-06-07T02:47:33.586Z,0.93
2023-06-07T02:48:33.556Z,1.01
2023-06-07T02:49:33.565Z,1.05
2023-06-07T02:50:33.580Z,1.03
2023-06-07T02:51:33.590Z,0.97
2023-06-07T02:52:33.580Z,0.97
2023-06-07T02:53:33.647Z,0.98
2023-06-07T02:54:33.643Z,0.87
2023-06-07T02:55:33.691Z,0.84
2023-06-07T02:56:33.669Z,0.88
2023-06-07T02:57:33.680Z,0.89
2023-06-07T02:58:33.692Z,0.80
2023-06-07T02:59:33.709Z,0.81
2023-06-07T03:00:33.749Z,0.87
2023-06-07T03:01:33.935Z,0.83
2023-06-07T03:02:33.851Z,0.79
2023-06-07T03:03:33.880Z,0.76
2023-06-07T03:04:33.811Z,0.84
2023-06-07T03:05:33.814Z,0.91
2023-06-07T03:06:33.863Z,0.92
2023-06-07T03:07:33.834Z,0.85
2023-06-07T03:08:33.858Z,0.83
2023-06-07T03:09:33.897Z,0.91
2023-06-07T03:10:33.911Z,0.99
2023-06-07T03:11:33.923Z,0.99
2023-06-07T03:12:33.886Z,0.94
2023-06-07T03:13:33.891Z,0.86
2023-06-07T03:14:33.943Z,0.82
2023-06-07T03:15:33.981Z,0.87
2023-06-07T03:16:33.999Z,0.85
2023-06-07T03:17:33.998Z,0.91
2023-06-07T03:18:33.974Z,0.92
2023-06-07T03:19:34.017Z,0.86
2023-06-07T03:20:34.048Z,0.86
2023-06-07T03:21:34.058Z,0.86
2023-06-07T03:22:34.095Z,0.91
2023-06-07T03:23:34.100Z,0.94
2023-06-07T03:24:34.103Z,1.00
2023-06-07T03:25:34.774Z,0.95
2023-06-07T03:26:34.165Z,0.89
2023-06-07T03:27:34.168Z,0.82
2023-06-07T03:28:34.185Z,0.83
2023-06-07T03:29:34.244Z,0.85
2023-06-07T03:30:34.305Z,0.84
2023-06-07T03:31:34.291Z,0.83
2023-06-07T03:32:34.378Z,0.79
2023-06-07T03:33:34.313Z,0.76
2023-06-07T03:34:34.353Z,0.74
2023-06-07T03:35:34.390Z,0.80
2023-06-07T03:36:34.399Z,0.85
2023-06-07T03:37:34.413Z,0.87
2023-06-07T03:38:34.451Z,0.86
2023-06-07T03:39:34.504Z,0.85
2023-06-07T03:40:34.529Z,0.90
2023-06-07T03:41:34.554Z,0.87
2023-06-07T03:42:34.556Z,0.86
2023-06-07T03:43:34.571Z,0.85
2023-06-07T03:44:34.613Z,0.88
2023-06-07T03:45:34.596Z,0.83
2023-06-07T03:46:34.638Z,0.85
2023-06-07T03:47:34.669Z,0.86
2023-06-07T03:48:34.705Z,0.87
2023-06-07T03:49:34.701Z,0.88
2023-06-07T03:50:34.708Z,0.82
2023-06-07T03:51:34.746Z,0.84
2023-06-07T03:52:34.786Z,0.86
2023-06-07T03:53:34.788Z,0.82
2023-06-07T03:54:34.795Z,0.84
2023-06-07T03:55:34.821Z,0.82
2023-06-07T03:56:34.902Z,0.79
2023-06-07T03:57:34.848Z,0.80
2023-06-07T03:58:34.868Z,0.87
2023-06-07T03:59:34.912Z,0.86
2023-06-07T04:00:34.894Z,0.82
2023-06-07T04:01:34.907Z,0.82
2023-06-07T04:02:35.040Z,0.81
2023-06-07T04:03:35.056Z,0.85
2023-06-07T04:04:35.010Z,0.88
2023-06-07T04:05:34.971Z,0.92
2023-06-07T04:06:34.995Z,0.93
2023-06-07T04:07:35.004Z,0.93
2023-06-07T04:08:35.015Z,0.88
2023-06-07T04:09:35.025Z,0.91
2023-06-07T04:10:35.021Z,0.94
2023-06-07T04:11:35.040Z,0.95
2023-06-07T04:12:35.050Z,0.93
2023-06-07T04:13:35.083Z,1.00
2023-06-07T04:14:35.062Z,0.94
2023-06-07T04:15:35.105Z,1.00
2023-06-07T04:16:35.139Z,1.03
2023-06-07T04:17:35.160Z,1.01
2023-06-07T04:18:35.161Z,0.99
2023-06-07T04:19:35.139Z,1.04
2023-06-07T04:20:35.143Z,1.10
2023-06-07T04:21:35.181Z,1.14
2023-06-07T04:22:35.194Z,1.13
2023-06-07T04:23:35.233Z,1.15
2023-06-07T04:24:35.207Z,1.06
2023-06-07T04:25:35.230Z,1.02
2023-06-07T04:26:35.250Z,1.03
2023-06-07T04:27:35.288Z,0.96
2023-06-07T04:28:35.282Z,1.01
2023-06-07T04:29:35.307Z,1.05
2023-06-07T04:30:35.300Z,1.08
2023-06-07T04:31:35.526Z,1.08
2023-06-07T04:32:35.364Z,1.15
2023-06-07T04:33:35.335Z,1.11
2023-06-07T04:34:35.362Z,1.07
2023-06-07T04:35:35.367Z,1.09
2023-06-07T04:36:35.364Z,1.11
2023-06-07T04:37:35.419Z,1.21
2023-06-07T04:38:43.352Z,1.29
2023-06-07T04:39:36.465Z,1.29
2023-06-07T04:40:35.456Z,1.26
2023-06-07T04:41:35.492Z,1.29
2023-06-07T04:42:35.475Z,1.28
2023-06-07T04:43:35.534Z,1.27
2023-06-07T04:44:35.521Z,1.27
2023-06-07T04:45:35.503Z,1.28
2023-06-07T04:46:35.610Z,1.32
2023-06-07T04:47:35.565Z,1.37
2023-06-07T04:48:35.600Z,1.37
2023-06-07T04:49:35.559Z,1.41
2023-06-07T04:50:35.531Z,1.43
2023-06-07T04:51:35.599Z,1.34
2023-06-07T04:52:35.572Z,1.38
2023-06-07T04:53:35.599Z,1.43
2023-06-07T04:54:35.598Z,1.46
2023-06-07T04:55:35.655Z,1.50
2023-06-07T04:56:35.583Z,1.50
2023-06-07T04:57:35.597Z,1.49
2023-06-07T04:58:35.593Z,1.48
2023-06-07T04:59:35.736Z,1.49
2023-06-07T05:00:35.614Z,1.46
2023-06-07T05:01:35.678Z,1.46
2023-06-07T05:02:35.689Z,1.44
2023-06-07T05:03:35.635Z,1.43
2023-06-07T05:04:35.642Z,1.42
2023-06-07T05:05:35.694Z,1.41
2023-06-07T05:06:35.696Z,1.39
2023-06-07T05:07:35.663Z,1.38
2023-06-07T05:08:35.702Z,1.34
2023-06-07T05:09:35.774Z,1.33
2023-06-07T05:10:35.719Z,1.32
2023-06-07T05:11:35.736Z,1.32
2023-06-07T05:12:35.722Z,1.30
2023-06-07T05:13:35.756Z,1.29
2023-06-07T05:14:35.826Z,1.29
2023-06-07T05:15:35.840Z,1.31
2023-06-07T05:16:35.894Z,1.30
2023-06-07T05:17:36.074Z,1.33
2023-06-07T05:18:35.932Z,1.37
2023-06-07T05:19:35.962Z,1.38
2023-06-07T05:20:35.958Z,1.34
2023-06-07T05:21:35.997Z,1.37
2023-06-07T05:22:35.998Z,1.34
2023-06-07T05:23:35.992Z,1.39
2023-06-07T05:24:36.009Z,1.40
2023-06-07T05:25:36.013Z,1.43
2023-06-07T05:26:36.069Z,1.42
2023-06-07T05:27:36.074Z,1.43
2023-06-07T05:28:36.074Z,1.44
2023-06-07T05:29:36.109Z,1.46
2023-06-07T05:30:36.154Z,1.46
2023-06-07T05:31:36.154Z,1.47
2023-06-07T05:32:36.179Z,1.44
2023-06-07T05:33:36.151Z,1.50
2023-06-07T05:34:36.161Z,1.47
2023-06-07T05:35:36.157Z,1.45
2023-06-07T05:36:36.362Z,1.50
2023-06-07T05:37:36.218Z,1.51
2023-06-07T05:38:36.203Z,1.50
2023-06-07T05:39:36.233Z,1.50
2023-06-07T05:40:36.246Z,1.45
2023-06-07T05:41:36.254Z,1.48
2023-06-07T05:42:36.264Z,1.52
2023-06-07T05:43:36.246Z,1.58
2023-06-07T05:44:36.257Z,1.63
2023-06-07T05:45:36.340Z,1.62
2023-06-07T05:46:36.804Z,1.72
2023-06-07T05:47:36.447Z,1.73
2023-06-07T05:48:36.418Z,1.76
2023-06-07T05:49:39.297Z,1.82
2023-06-07T05:50:36.466Z,1.87
2023-06-07T05:51:36.492Z,1.93
2023-06-07T05:52:36.499Z,1.93
2023-06-07T05:53:36.511Z,1.95
2023-06-07T05:54:36.496Z,2.00
2023-06-07T05:55:36.455Z,2.02
2023-06-07T05:56:36.518Z,2.02
2023-06-07T05:57:36.475Z,2.04
2023-06-07T05:58:36.482Z,1.97
2023-06-07T05:59:36.492Z,1.98
2023-06-07T06:00:36.479Z,1.95
2023-06-07T06:01:36.502Z,1.92
2023-06-07T06:02:36.543Z,1.94
2023-06-07T06:03:36.496Z,1.95
2023-06-07T06:04:36.558Z,2.05
2023-06-07T06:05:36.527Z,2.05
2023-06-07T06:06:36.526Z,2.15
2023-06-07T06:07:36.568Z,2.14
2023-06-07T06:08:36.581Z,2.21
2023-06-07T06:09:36.587Z,2.28
2023-06-07T06:10:36.583Z,2.31
2023-06-07T06:11:36.614Z,2.36
2023-06-07T06:12:36.604Z,2.45
2023-06-07T06:13:36.630Z,2.44
2023-06-07T06:14:36.597Z,2.42
2023-06-07T06:15:36.597Z,2.43
2023-06-07T06:16:36.661Z,2.52
2023-06-07T06:17:36.667Z,2.62
2023-06-07T06:18:36.606Z,2.65
2023-06-07T06:19:36.596Z,2.68
2023-06-07T06:20:36.611Z,2.71
2023-06-07T06:21:36.693Z,2.78
2023-06-07T06:22:36.666Z,2.78
2023-06-07T06:23:36.667Z,2.83
2023-06-07T06:24:36.634Z,2.88
2023-06-07T06:25:36.659Z,2.96
2023-06-07T06:26:36.660Z,2.95
2023-06-07T06:27:36.682Z,3.03
2023-06-07T06:28:36.655Z,3.02
2023-06-07T06:29:36.683Z,3.03
2023-06-07T06:30:36.709Z,3.09
2023-06-07T06:31:36.749Z,3.20
2023-06-07T06:32:36.711Z,3.22
2023-06-07T06:33:36.846Z,3.22
2023-06-07T06:34:36.717Z,3.21
2023-06-07T06:35:36.733Z,3.23
2023-06-07T06:36:36.745Z,3.15
2023-06-07T06:37:36.691Z,3.12
2023-06-07T06:38:36.712Z,3.13
2023-06-07T06:39:36.721Z,3.17
2023-06-07T06:40:36.715Z,3.10
2023-06-07T06:41:36.890Z,3.11
2023-06-07T06:42:36.751Z,3.03
2023-06-07T06:43:36.806Z,3.13
2023-06-07T06:44:36.748Z,3.12
2023-06-07T06:45:36.748Z,3.23
2023-06-07T06:46:36.822Z,3.19
2023-06-07T06:47:36.803Z,3.20
2023-06-07T06:48:36.835Z,3.08
2023-06-07T06:49:36.760Z,2.98
2023-06-07T06:50:36.992Z,3.13
2023-06-07T06:51:36.780Z,3.20
2023-06-07T06:52:36.771Z,3.31
2023-06-07T06:53:36.790Z,3.46
2023-06-07T06:54:36.811Z,3.48
2023-06-07T06:55:36.804Z,3.37
2023-06-07T06:56:36.819Z,3.41
2023-06-07T06:57:36.803Z,3.33
2023-06-07T06:58:36.807Z,3.36
2023-06-07T06:59:36.858Z,3.38
2023-06-07T07:00:36.947Z,3.33
2023-06-07T07:01:36.851Z,3.24
2023-06-07T07:02:36.836Z,3.22
2023-06-07T07:03:36.846Z,3.30
2023-06-07T07:04:36.977Z,3.24
2023-06-07T07:05:37.060Z,3.18
2023-06-07T07:06:36.864Z,3.17
2023-06-07T07:07:36.834Z,3.18
2023-06-07T07:08:36.893Z,3.17
2023-06-07T07:09:36.875Z,3.12
2023-06-07T07:10:36.923Z,3.11
2023-06-07T07:11:36.907Z,3.14
2023-06-07T07:12:36.914Z,3.14
2023-06-07T07:13:36.928Z,3.15
2023-06-07T07:14:36.937Z,3.17
2023-06-07T07:15:36.930Z,3.16
2023-06-07T07:16:39.180Z,3.10
2023-06-07T07:17:36.959Z,3.11
2023-06-07T07:18:36.941Z,3.05
2023-06-07T07:19:37.070Z,2.97
2023-06-07T07:20:36.954Z,2.96
2023-06-07T07:21:37.007Z,2.97
2023-06-07T07:22:36.974Z,2.99
2023-06-07T07:23:37.017Z,2.96
2023-06-07T07:24:37.296Z,2.92
2023-06-07T07:25:37.065Z,2.93
2023-06-07T07:26:37.038Z,2.91
2023-06-07T07:27:37.117Z,2.87
2023-06-07T07:28:37.048Z,2.95
2023-06-07T07:29:37.041Z,2.86
2023-06-07T07:30:37.057Z,2.84
2023-06-07T07:31:37.085Z,2.86
2023-06-07T07:32:37.071Z,2.83
2023-06-07T07:33:37.100Z,2.73
2023-06-07T07:34:38.081Z,2.74
2023-06-07T07:35:37.090Z,2.81
2023-06-07T07:36:37.114Z,2.79
2023-06-07T07:37:37.124Z,2.77
2023-06-07T07:38:37.116Z,2.74
2023-06-07T07:39:37.104Z,3.29
2023-06-07T07:40:37.231Z,2.87
2023-06-07T07:41:37.150Z,2.73
2023-06-07T07:42:37.136Z,2.69
2023-06-07T07:43:38.396Z,2.78
2023-06-07T07:44:37.193Z,2.84
2023-06-07T07:45:37.146Z,2.70
2023-06-07T07:46:37.158Z,2.69
2023-06-07T07:47:37.858Z,2.67
2023-06-07T07:48:37.136Z,2.72
2023-06-07T07:49:37.142Z,2.68
2023-06-07T07:50:37.167Z,2.72
2023-06-07T07:51:37.158Z,2.70
2023-06-07T07:52:37.270Z,2.66
2023-06-07T07:53:37.137Z,2.56
2023-06-07T07:54:37.178Z,2.58
2023-06-07T07:55:37.186Z,2.62
2023-06-07T07:56:37.189Z,2.64
2023-06-07T07:57:37.254Z,2.80
2023-06-07T07:58:37.214Z,2.89
2023-06-07T07:59:37.169Z,2.92
2023-06-07T08:00:37.179Z,2.90
2023-06-07T08:01:37.224Z,2.90
2023-06-07T08:02:37.323Z,2.96
2023-06-07T08:03:37.535Z,2.82
2023-06-07T08:04:37.173Z,2.82
2023-06-07T08:05:37.221Z,2.90
2023-06-07T08:06:37.192Z,3.01
2023-06-07T08:07:37.265Z,3.05
2023-06-07T08:08:37.214Z,3.03
2023-06-07T08:09:37.219Z,2.99
2023-06-07T08:10:37.191Z,2.84
2023-06-07T08:11:37.220Z,2.93
2023-06-07T08:12:37.203Z,2.85
2023-06-07T08:13:37.221Z,2.78
2023-06-07T08:14:37.211Z,2.75
2023-06-07T08:15:37.209Z,2.75
2023-06-07T08:16:37.208Z,2.73
2023-06-07T08:17:37.208Z,2.68
2023-06-07T08:18:37.262Z,2.66
2023-06-07T08:19:37.243Z,2.59
2023-06-07T08:20:37.234Z,2.64
2023-06-07T08:21:37.232Z,2.57
2023-06-07T08:22:37.203Z,2.46
2023-06-07T08:23:37.236Z,2.49
2023-06-07T08:24:37.232Z,2.40
2023-06-07T08:25:37.234Z,2.43
2023-06-07T08:26:37.227Z,2.30
2023-06-07T08:27:37.298Z,2.33
2023-06-07T08:28:37.214Z,2.28
2023-06-07T08:29:37.236Z,2.25
2023-06-07T08:30:37.249Z,2.20
2023-06-07T08:31:37.288Z,2.20
2023-06-07T08:32:37.284Z,2.31
2023-06-07T08:33:37.250Z,2.18
2023-06-07T08:34:37.263Z,2.02
2023-06-07T08:35:37.242Z,2.18
2023-06-07T08:36:37.284Z,2.23
2023-06-07T08:37:37.281Z,2.09
2023-06-07T08:38:37.340Z,2.15
2023-06-07T08:39:37.390Z,2.15
2023-06-07T08:40:37.438Z,2.08
2023-06-07T08:41:37.816Z,2.17
2023-06-07T08:42:37.556Z,2.33
2023-06-07T08:43:37.580Z,2.64
2023-06-07T08:44:37.676Z,2.72
2023-06-07T08:45:40.496Z,2.95
2023-06-07T08:46:37.840Z,2.96
2023-06-07T08:47:37.825Z,3.00
2023-06-07T08:48:37.778Z,3.09
2023-06-07T08:49:37.760Z,3.36
2023-06-07T08:50:37.805Z,3.69
2023-06-07T08:51:37.781Z,3.98
2023-06-07T08:52:37.765Z,3.96
2023-06-07T08:53:37.827Z,3.65
2023-06-07T08:54:37.788Z,3.77
2023-06-07T08:55:37.796Z,3.61
2023-06-07T08:56:37.824Z,3.55
2023-06-07T08:57:38.065Z,3.70
2023-06-07T08:58:37.837Z,3.55
2023-06-07T08:59:37.799Z,3.44
2023-06-07T09:00:37.786Z,3.41
2023-06-07T09:01:37.916Z,3.32
2023-06-07T09:02:37.899Z,3.30
2023-06-07T09:03:38.049Z,3.29
2023-06-07T09:04:37.954Z,3.33
2023-06-07T09:05:38.022Z,3.23
2023-06-07T09:06:38.071Z,3.18
2023-06-07T09:07:38.169Z,3.23
2023-06-07T09:08:38.182Z,3.09
2023-06-07T09:09:38.242Z,3.02
2023-06-07T09:10:38.329Z,3.01
2023-06-07T09:11:38.404Z,2.95
2023-06-07T09:12:38.437Z,2.94
2023-06-07T09:13:38.476Z,2.87
2023-06-07T09:14:38.524Z,2.85
2023-06-07T09:15:38.642Z,2.97
2023-06-07T09:16:38.795Z,3.16
2023-06-07T09:17:38.802Z,3.16
2023-06-07T09:18:38.868Z,3.11
2023-06-07T09:19:38.853Z,2.99
2023-06-07T09:20:38.933Z,2.91
2023-06-07T09:21:39.022Z,2.82
2023-06-07T09:22:39.048Z,2.77
2023-06-07T09:23:39.174Z,2.65
2023-06-07T09:24:39.171Z,2.62
2023-06-07T09:25:39.274Z,2.60
2023-06-07T09:26:39.756Z,2.58
2023-06-07T09:27:39.389Z,2.50
2023-06-07T09:28:39.449Z,2.43
2023-06-07T09:29:39.548Z,2.53
2023-06-07T09:30:39.577Z,2.47
2023-06-07T09:31:39.715Z,2.44
2023-06-07T09:32:39.758Z,2.61
2023-06-07T09:33:39.807Z,2.38
2023-06-07T09:34:39.806Z,2.25
2023-06-07T09:35:39.902Z,2.25
2023-06-07T09:36:40.038Z,2.31
2023-06-07T09:37:40.071Z,2.49
2023-06-07T09:38:40.099Z,2.52
2023-06-07T09:39:40.155Z,2.63
2023-06-07T09:40:40.225Z,2.76
2023-06-07T09:41:40.292Z,3.11
2023-06-07T09:42:40.301Z,3.12
2023-06-07T09:43:40.379Z,3.29
2023-06-07T09:44:40.451Z,3.44
2023-06-07T09:45:40.676Z,3.25
2023-06-07T09:46:40.593Z,3.30
2023-06-07T09:47:40.768Z,3.29
2023-06-07T09:48:40.762Z,3.55
2023-06-07T09:49:40.705Z,3.69
2023-06-07T09:50:40.780Z,4.06
2023-06-07T09:51:40.817Z,3.41
2023-06-07T09:52:40.767Z,3.24
2023-06-07T09:53:40.848Z,3.34
2023-06-07T09:54:40.907Z,3.44
2023-06-07T09:55:40.926Z,3.36
2023-06-07T09:56:40.916Z,3.50
2023-06-07T09:57:40.959Z,3.59
2023-06-07T09:58:41.076Z,3.56
2023-06-07T09:59:41.055Z,3.40
2023-06-07T10:00:41.155Z,3.61
2023-06-07T10:01:41.483Z,3.51
2023-06-07T10:02:41.266Z,3.26
2023-06-07T10:03:41.957Z,3.36
2023-06-07T10:04:41.321Z,3.44
2023-06-07T10:05:41.351Z,3.49
2023-06-07T10:06:41.438Z,3.43
2023-06-07T10:07:41.539Z,3.45
2023-06-07T10:08:41.472Z,3.53
2023-06-07T10:09:41.544Z,3.81
2023-06-07T10:10:41.554Z,3.90
2023-06-07T10:11:41.608Z,4.06
2023-06-07T10:12:41.706Z,3.89
2023-06-07T10:13:41.794Z,4.05
2023-06-07T10:14:41.793Z,4.08
2023-06-07T10:15:41.811Z,4.33
2023-06-07T10:16:41.908Z,4.48
2023-06-07T10:17:41.920Z,4.53
2023-06-07T10:18:41.932Z,4.52
2023-06-07T10:19:42.090Z,4.50
2023-06-07T10:20:42.039Z,4.44
2023-06-07T10:21:42.084Z,4.41
2023-06-07T10:22:42.097Z,4.43
2023-06-07T10:23:42.241Z,4.59
2023-06-07T10:24:42.214Z,4.30
2023-06-07T10:25:42.235Z,4.17
2023-06-07T10:26:42.329Z,4.29
2023-06-07T10:27:42.398Z,4.35
2023-06-07T10:28:42.418Z,4.38
2023-06-07T10:29:42.500Z,4.46
2023-06-07T10:30:42.532Z,4.36
2023-06-07T10:31:42.603Z,4.34
2023-06-07T10:32:42.752Z,4.43
2023-06-07T10:33:42.829Z,4.64
2023-06-07T10:34:42.724Z,4.91
2023-06-07T10:35:42.826Z,4.99
2023-06-07T10:36:42.928Z,5.06
2023-06-07T10:37:42.949Z,4.99
2023-06-07T10:38:43.005Z,4.97
2023-06-07T10:39:43.056Z,4.91
2023-06-07T10:40:43.064Z,7.26
2023-06-07T10:41:43.116Z,7.53
2023-06-07T10:42:43.144Z,6.06
2023-06-07T10:43:43.154Z,5.79
2023-06-07T10:44:43.266Z,5.27
2023-06-07T10:45:43.396Z,4.93
2023-06-07T10:46:43.352Z,4.79
2023-06-07T10:47:43.414Z,4.88
2023-06-07T10:48:43.407Z,5.03
2023-06-07T10:49:43.610Z,5.06
2023-06-07T10:50:43.473Z,4.50
2023-06-07T10:51:43.569Z,4.38
2023-06-07T10:52:43.526Z,4.34
2023-06-07T10:53:43.583Z,4.20
2023-06-07T10:54:43.660Z,4.02
2023-06-07T10:55:43.712Z,3.82
2023-06-07T10:56:43.769Z,3.75
2023-06-07T10:57:43.818Z,3.66
2023-06-07T10:58:43.773Z,3.73
2023-06-07T10:59:43.805Z,3.73
2023-06-07T11:00:43.935Z,3.61
2023-06-07T11:01:43.933Z,3.59
2023-06-07T11:02:44.056Z,3.75
2023-06-07T11:03:44.141Z,3.66
2023-06-07T11:04:44.326Z,3.45
2023-06-07T11:05:44.204Z,3.19
2023-06-07T11:06:44.152Z,3.60
2023-06-07T11:07:44.233Z,3.76
2023-06-07T11:08:44.254Z,3.52
2023-06-07T11:09:44.271Z,3.61
2023-06-07T11:10:44.373Z,3.49
2023-06-07T11:11:44.381Z,3.38
2023-06-07T11:12:44.485Z,3.49
2023-06-07T11:13:44.551Z,3.29
2023-06-07T11:14:44.571Z,3.33
2023-06-07T11:15:44.594Z,3.42
2023-06-07T11:16:44.681Z,3.39
2023-06-07T11:17:44.708Z,3.22
2023-06-07T11:18:44.702Z,3.12
2023-06-07T11:19:44.762Z,3.27
2023-06-07T11:20:44.958Z,3.23
2023-06-07T11:21:44.974Z,3.17
2023-06-07T11:22:44.920Z,3.15
2023-06-07T11:23:45.062Z,3.32
2023-06-07T11:24:46.836Z,3.06
2023-06-07T11:25:45.157Z,2.86
2023-06-07T11:26:45.130Z,2.62
2023-06-07T11:27:45.154Z,2.25
2023-06-07T11:28:45.244Z,2.17
2023-06-07T11:29:45.358Z,2.01
2023-06-07T11:30:45.283Z,2.00
2023-06-07T11:31:45.322Z,2.27
2023-06-07T11:32:45.415Z,2.41
2023-06-07T11:33:45.400Z,2.56
2023-06-07T11:34:45.457Z,2.89
2023-06-07T11:35:45.439Z,2.83
2023-06-07T11:36:45.509Z,2.79
2023-06-07T11:37:45.488Z,2.85
2023-06-07T11:38:45.535Z,2.89
2023-06-07T11:39:45.576Z,2.55
2023-06-07T11:40:45.621Z,2.30
2023-06-07T11:41:48.180Z,1.95
2023-06-07T11:42:45.594Z,1.68
2023-06-07T11:43:45.598Z,1.23
2023-06-07T11:44:45.619Z,0.94
2023-06-07T11:45:45.633Z,0.70
2023-06-07T11:46:45.617Z,0.57
2023-06-07T11:47:45.693Z,0.49
2023-06-07T11:48:45.641Z,0.54
2023-06-07T11:49:45.608Z,0.57
2023-06-07T11:50:45.620Z,0.59
2023-06-07T11:51:45.626Z,0.68
2023-06-07T11:52:45.637Z,0.79
2023-06-07T11:53:45.617Z,0.92
2023-06-07T11:54:45.577Z,1.07
2023-06-07T11:55:45.564Z,1.18
2023-06-07T11:56:45.625Z,1.29
2023-06-07T11:57:45.611Z,1.39
2023-06-07T11:58:45.578Z,1.51
2023-06-07T11:59:45.573Z,1.48
2023-06-07T12:00:45.584Z,1.55
2023-06-07T12:01:45.558Z,1.72
2023-06-07T12:02:45.634Z,1.75
2023-06-07T12:03:45.751Z,1.76
2023-06-07T12:04:45.734Z,1.90
2023-06-07T12:05:45.571Z,1.88
2023-06-07T12:06:45.593Z,1.85
2023-06-07T12:07:45.563Z,1.80
2023-06-07T12:08:45.610Z,1.80
2023-06-07T12:09:45.568Z,1.84
2023-06-07T12:10:45.581Z,1.78
2023-06-07T12:11:45.602Z,1.76
2023-06-07T12:12:45.594Z,1.80
2023-06-07T12:13:45.601Z,1.87
2023-06-07T12:14:45.645Z,1.80
2023-06-07T12:15:45.624Z,1.78
2023-06-07T12:16:45.589Z,1.89
2023-06-07T12:17:45.625Z,1.92
2023-06-07T12:18:45.611Z,1.93
2023-06-07T12:19:45.598Z,1.95
2023-06-07T12:20:45.623Z,1.92
2023-06-07T12:21:45.626Z,1.78
2023-06-07T12:22:45.597Z,1.57
2023-06-07T12:23:45.696Z,1.58
2023-06-07T12:24:45.615Z,1.50
2023-06-07T12:25:45.630Z,1.53
2023-06-07T12:26:45.610Z,1.61
2023-06-07T12:27:45.621Z,1.53
2023-06-07T12:28:45.578Z,1.55
2023-06-07T12:29:45.606Z,1.65
2023-06-07T12:30:45.628Z,1.64
2023-06-07T12:31:45.763Z,1.73
2023-06-07T12:32:45.638Z,1.72
2023-06-07T12:33:45.597Z,1.67
2023-06-07T12:34:45.633Z,1.70
2023-06-07T12:35:45.635Z,1.75
2023-06-07T12:36:45.641Z,1.63
2023-06-07T12:37:45.621Z,1.55
2023-06-07T12:38:45.626Z,1.55
2023-06-07T12:39:45.646Z,1.68
2023-06-07T12:40:45.723Z,1.66
2023-06-07T12:41:45.644Z,1.77
2023-06-07T12:42:45.660Z,1.68
2023-06-07T12:43:45.632Z,1.60
2023-06-07T12:44:45.661Z,1.62
2023-06-07T12:45:45.651Z,1.53
2023-06-07T12:46:45.709Z,1.50
2023-06-07T12:47:47.386Z,1.53
2023-06-07T12:48:45.649Z,1.47
2023-06-07T12:49:45.665Z,1.37
2023-06-07T12:50:45.629Z,1.44
2023-06-07T12:51:45.699Z,1.37
2023-06-07T12:52:45.626Z,1.28
2023-06-07T12:53:45.664Z,1.08
2023-06-07T12:54:45.673Z,1.03
2023-06-07T12:55:45.653Z,1.01
2023-06-07T12:56:45.662Z,0.92
2023-06-07T12:57:45.654Z,0.85
2023-06-07T12:58:45.643Z,0.83
2023-06-07T12:59:45.644Z,0.85
2023-06-07T13:00:45.669Z,0.84
2023-06-07T13:01:45.675Z,0.81
2023-06-07T13:02:45.724Z,0.85
2023-06-07T13:03:45.843Z,0.73
2023-06-07T13:04:45.680Z,0.74
2023-06-07T13:05:45.712Z,0.78
2023-06-07T13:06:45.691Z,0.71
2023-06-07T13:07:45.700Z,0.71
2023-06-07T13:08:45.699Z,0.65
2023-06-07T13:09:45.688Z,0.63
2023-06-07T13:10:45.693Z,0.58
2023-06-07T13:11:45.703Z,0.55
2023-06-07T13:12:45.688Z,0.53
2023-06-07T13:13:45.687Z,0.52
2023-06-07T13:14:45.686Z,0.52
2023-06-07T13:15:45.664Z,0.54
2023-06-07T13:16:45.847Z,0.56
2023-06-07T13:17:45.777Z,0.54
2023-06-07T13:18:45.745Z,0.50